sensor_id;sensor_type;location;lat;lon;timestamp;temperature;humidity
49236;DHT22;35067;48.134;8.378;2024-02-26T00:00:04;5.60;92.50
49236;DHT22;35067;48.134;8.378;2024-02-26T00:01:09;5.50;91.70
49236;DHT22;35067;48.134;8.378;2024-02-26T00:02:09;5.40;91.40
49236;DHT22;35067;48.134;8.378;2024-02-26T00:03:10;5.30;90.90
49236;DHT22;35067;48.134;8.378;2024-02-26T00:04:11;5.30;92.50
49236;DHT22;35067;48.134;8.378;2024-02-26T00:05:12;5.30;93.20
49236;DHT22;35067;48.134;8.378;2024-02-26T00:06:13;5.20;93.50
49236;DHT22;35067;48.134;8.378;2024-02-26T00:07:14;5.20;94.00
49236;DHT22;35067;48.134;8.378;2024-02-26T00:08:14;5.20;93.40
49236;DHT22;35067;48.134;8.378;2024-02-26T00:09:15;5.20;93.40
49236;DHT22;35067;48.134;8.378;2024-02-26T00:10:16;5.10;92.00
49236;DHT22;35067;48.134;8.378;2024-02-26T00:11:17;5.00;85.80
49236;DHT22;35067;48.134;8.378;2024-02-26T00:12:17;5.00;82.60
49236;DHT22;35067;48.134;8.378;2024-02-26T00:13:18;5.10;84.20
49236;DHT22;35067;48.134;8.378;2024-02-26T00:14:20;5.20;81.80
49236;DHT22;35067;48.134;8.378;2024-02-26T00:15:21;5.30;85.30
49236;DHT22;35067;48.134;8.378;2024-02-26T00:16:21;5.30;87.20
49236;DHT22;35067;48.134;8.378;2024-02-26T00:17:22;5.30;86.90
49236;DHT22;35067;48.134;8.378;2024-02-26T00:18:23;5.30;88.10
49236;DHT22;35067;48.134;8.378;2024-02-26T00:19:23;5.40;90.00
49236;DHT22;35067;48.134;8.378;2024-02-26T00:20:24;5.30;90.70
49236;DHT22;35067;48.134;8.378;2024-02-26T00:21:25;5.30;90.70
49236;DHT22;35067;48.134;8.378;2024-02-26T00:22:25;5.20;90.60
49236;DHT22;35067;48.134;8.378;2024-02-26T00:23:26;5.20;90.80
49236;DHT22;35067;48.134;8.378;2024-02-26T00:24:27;5.20;90.90
49236;DHT22;35067;48.134;8.378;2024-02-26T00:25:28;5.30;91.30
49236;DHT22;35067;48.134;8.378;2024-02-26T00:26:29;5.30;91.30
49236;DHT22;35067;48.134;8.378;2024-02-26T00:27:29;5.30;91.70
49236;DHT22;35067;48.134;8.378;2024-02-26T00:28:31;5.40;92.80
49236;DHT22;35067;48.134;8.378;2024-02-26T00:29:31;5.40;92.60
49236;DHT22;35067;48.134;8.378;2024-02-26T00:30:32;5.30;92.00
49236;DHT22;35067;48.134;8.378;2024-02-26T00:31:33;5.20;91.70
49236;DHT22;35067;48.134;8.378;2024-02-26T00:32:34;5.20;91.70
49236;DHT22;35067;48.134;8.378;2024-02-26T00:33:34;5.20;92.10
49236;DHT22;35067;48.134;8.378;2024-02-26T00:34:35;5.30;92.20
49236;DHT22;35067;48.134;8.378;2024-02-26T00:35:36;5.30;92.60
49236;DHT22;35067;48.134;8.378;2024-02-26T00:36:36;5.40;92.70
49236;DHT22;35067;48.134;8.378;2024-02-26T00:37:37;5.40;93.10
49236;DHT22;35067;48.134;8.378;2024-02-26T00:38:38;5.40;93.10
49236;DHT22;35067;48.134;8.378;2024-02-26T00:39:40;5.40;92.90
49236;DHT22;35067;48.134;8.378;2024-02-26T00:40:41;5.40;92.70
49236;DHT22;35067;48.134;8.378;2024-02-26T00:41:42;5.50;94.20
49236;DHT22;35067;48.134;8.378;2024-02-26T00:42:43;5.50;93.60
49236;DHT22;35067;48.134;8.378;2024-02-26T00:43:46;5.50;93.30
49236;DHT22;35067;48.134;8.378;2024-02-26T00:44:47;5.50;93.30
49236;DHT22;35067;48.134;8.378;2024-02-26T00:45:48;5.50;93.80
49236;DHT22;35067;48.134;8.378;2024-02-26T00:46:49;5.50;93.70
49236;DHT22;35067;48.134;8.378;2024-02-26T00:47:49;5.40;94.10
49236;DHT22;35067;48.134;8.378;2024-02-26T00:48:50;5.40;94.40
49236;DHT22;35067;48.134;8.378;2024-02-26T00:49:51;5.40;94.70
49236;DHT22;35067;48.134;8.378;2024-02-26T00:50:51;5.50;94.50
49236;DHT22;35067;48.134;8.378;2024-02-26T00:51:52;5.40;94.40
49236;DHT22;35067;48.134;8.378;2024-02-26T00:52:53;5.40;94.20
49236;DHT22;35067;48.134;8.378;2024-02-26T00:53:54;5.40;94.30
49236;DHT22;35067;48.134;8.378;2024-02-26T00:54:55;5.40;94.30
49236;DHT22;35067;48.134;8.378;2024-02-26T00:55:55;5.30;94.90
49236;DHT22;35067;48.134;8.378;2024-02-26T00:56:56;5.30;95.30
49236;DHT22;35067;48.134;8.378;2024-02-26T00:57:57;5.30;95.30
49236;DHT22;35067;48.134;8.378;2024-02-26T00:58:58;5.30;95.10
49236;DHT22;35067;48.134;8.378;2024-02-26T00:59:59;5.30;95.10
49236;DHT22;35067;48.134;8.378;2024-02-26T01:01:01;5.40;94.80
49236;DHT22;35067;48.134;8.378;2024-02-26T01:02:01;5.40;94.40
49236;DHT22;35067;48.134;8.378;2024-02-26T01:03:02;5.40;94.70
49236;DHT22;35067;48.134;8.378;2024-02-26T01:04:04;5.30;94.90
49236;DHT22;35067;48.134;8.378;2024-02-26T01:05:06;5.40;95.10
49236;DHT22;35067;48.134;8.378;2024-02-26T01:06:06;5.30;95.00
49236;DHT22;35067;48.134;8.378;2024-02-26T01:07:07;5.40;94.70
49236;DHT22;35067;48.134;8.378;2024-02-26T01:08:09;5.30;94.70
49236;DHT22;35067;48.134;8.378;2024-02-26T01:09:09;5.40;94.50
49236;DHT22;35067;48.134;8.378;2024-02-26T01:10:10;5.30;94.40
49236;DHT22;35067;48.134;8.378;2024-02-26T01:11:11;5.30;94.50
49236;DHT22;35067;48.134;8.378;2024-02-26T01:12:11;5.30;94.10
49236;DHT22;35067;48.134;8.378;2024-02-26T01:13:12;5.30;94.10
49236;DHT22;35067;48.134;8.378;2024-02-26T01:14:13;5.30;93.20
49236;DHT22;35067;48.134;8.378;2024-02-26T01:15:15;5.20;92.30
49236;DHT22;35067;48.134;8.378;2024-02-26T01:16:15;5.30;91.90
49236;DHT22;35067;48.134;8.378;2024-02-26T01:17:16;5.40;91.60
49236;DHT22;35067;48.134;8.378;2024-02-26T01:18:17;5.40;92.10
49236;DHT22;35067;48.134;8.378;2024-02-26T01:19:17;5.30;92.40
49236;DHT22;35067;48.134;8.378;2024-02-26T01:20:19;5.30;92.40
49236;DHT22;35067;48.134;8.378;2024-02-26T01:21:20;5.30;92.80
49236;DHT22;35067;48.134;8.378;2024-02-26T01:22:21;5.20;93.00
49236;DHT22;35067;48.134;8.378;2024-02-26T01:23:22;5.20;93.70
49236;DHT22;35067;48.134;8.378;2024-02-26T01:24:23;5.10;94.10
49236;DHT22;35067;48.134;8.378;2024-02-26T01:25:24;5.20;94.80
49236;DHT22;35067;48.134;8.378;2024-02-26T01:26:24;5.20;94.70
49236;DHT22;35067;48.134;8.378;2024-02-26T01:27:25;5.30;94.60
49236;DHT22;35067;48.134;8.378;2024-02-26T01:28:27;5.30;94.40
49236;DHT22;35067;48.134;8.378;2024-02-26T01:29:28;5.30;94.50
49236;DHT22;35067;48.134;8.378;2024-02-26T01:30:28;5.30;94.40
49236;DHT22;35067;48.134;8.378;2024-02-26T01:31:29;5.40;95.30
49236;DHT22;35067;48.134;8.378;2024-02-26T01:32:30;5.30;94.90
49236;DHT22;35067;48.134;8.378;2024-02-26T01:33:31;5.30;95.80
49236;DHT22;35067;48.134;8.378;2024-02-26T01:34:32;5.10;97.60
49236;DHT22;35067;48.134;8.378;2024-02-26T01:35:32;4.90;96.60
49236;DHT22;35067;48.134;8.378;2024-02-26T01:36:33;4.80;96.20
49236;DHT22;35067;48.134;8.378;2024-02-26T01:37:34;4.80;95.80
49236;DHT22;35067;48.134;8.378;2024-02-26T01:38:35;4.80;95.80
49236;DHT22;35067;48.134;8.378;2024-02-26T01:39:36;4.80;96.10
49236;DHT22;35067;48.134;8.378;2024-02-26T01:40:36;4.80;97.00
49236;DHT22;35067;48.134;8.378;2024-02-26T01:41:37;4.60;99.40
49236;DHT22;35067;48.134;8.378;2024-02-26T01:42:41;4.50;98.30
49236;DHT22;35067;48.134;8.378;2024-02-26T01:43:42;4.40;99.30
49236;DHT22;35067;48.134;8.378;2024-02-26T01:44:43;4.40;99.10
49236;DHT22;35067;48.134;8.378;2024-02-26T01:45:43;4.40;99.90
49236;DHT22;35067;48.134;8.378;2024-02-26T01:46:44;4.40;99.90
49236;DHT22;35067;48.134;8.378;2024-02-26T01:47:45;4.50;99.90
49236;DHT22;35067;48.134;8.378;2024-02-26T01:48:46;4.50;99.90
49236;DHT22;35067;48.134;8.378;2024-02-26T01:49:48;4.50;99.90
49236;DHT22;35067;48.134;8.378;2024-02-26T01:50:49;4.50;99.90
49236;DHT22;35067;48.134;8.378;2024-02-26T01:51:50;4.50;99.90
49236;DHT22;35067;48.134;8.378;2024-02-26T01:52:51;4.40;99.90
49236;DHT22;35067;48.134;8.378;2024-02-26T01:53:53;4.30;99.90
49236;DHT22;35067;48.134;8.378;2024-02-26T01:54:54;4.30;99.90
49236;DHT22;35067;48.134;8.378;2024-02-26T01:55:54;4.30;99.90
49236;DHT22;35067;48.134;8.378;2024-02-26T01:56:56;4.30;99.90
49236;DHT22;35067;48.134;8.378;2024-02-26T01:57:57;4.40;99.90
49236;DHT22;35067;48.134;8.378;2024-02-26T01:58:58;4.30;99.90
49236;DHT22;35067;48.134;8.378;2024-02-26T01:59:59;4.30;99.90
49236;DHT22;35067;48.134;8.378;2024-02-26T02:01:01;4.30;99.90
49236;DHT22;35067;48.134;8.378;2024-02-26T02:02:06;4.30;99.90
49236;DHT22;35067;48.134;8.378;2024-02-26T02:03:09;4.30;99.90
49236;DHT22;35067;48.134;8.378;2024-02-26T02:04:09;4.40;99.90
49236;DHT22;35067;48.134;8.378;2024-02-26T02:05:12;4.50;99.90
49236;DHT22;35067;48.134;8.378;2024-02-26T02:06:13;4.50;99.90
49236;DHT22;35067;48.134;8.378;2024-02-26T02:07:13;4.50;99.90
49236;DHT22;35067;48.134;8.378;2024-02-26T02:08:14;4.50;99.90
49236;DHT22;35067;48.134;8.378;2024-02-26T02:09:15;4.50;99.90
49236;DHT22;35067;48.134;8.378;2024-02-26T02:10:16;4.50;99.90
49236;DHT22;35067;48.134;8.378;2024-02-26T02:11:19;4.50;99.90
49236;DHT22;35067;48.134;8.378;2024-02-26T02:12:20;4.60;99.90
49236;DHT22;35067;48.134;8.378;2024-02-26T02:13:21;4.60;99.90
49236;DHT22;35067;48.134;8.378;2024-02-26T02:14:22;4.60;99.90
49236;DHT22;35067;48.134;8.378;2024-02-26T02:15:23;4.60;99.90
49236;DHT22;35067;48.134;8.378;2024-02-26T02:16:24;4.70;99.90
49236;DHT22;35067;48.134;8.378;2024-02-26T02:17:25;4.70;99.90
49236;DHT22;35067;48.134;8.378;2024-02-26T02:18:27;4.80;99.90
49236;DHT22;35067;48.134;8.378;2024-02-26T02:19:27;4.80;99.90
49236;DHT22;35067;48.134;8.378;2024-02-26T02:20:34;4.80;99.90
49236;DHT22;35067;48.134;8.378;2024-02-26T02:21:35;4.90;99.90
49236;DHT22;35067;48.134;8.378;2024-02-26T02:22:36;5.00;99.90
49236;DHT22;35067;48.134;8.378;2024-02-26T02:23:38;4.90;99.90
49236;DHT22;35067;48.134;8.378;2024-02-26T02:24:39;4.90;99.90
49236;DHT22;35067;48.134;8.378;2024-02-26T02:25:39;4.90;99.90
49236;DHT22;35067;48.134;8.378;2024-02-26T02:26:40;4.90;99.90
49236;DHT22;35067;48.134;8.378;2024-02-26T02:27:42;4.90;99.90
49236;DHT22;35067;48.134;8.378;2024-02-26T02:28:43;4.80;99.90
49236;DHT22;35067;48.134;8.378;2024-02-26T02:29:45;4.80;99.90
49236;DHT22;35067;48.134;8.378;2024-02-26T02:30:45;4.70;99.90
49236;DHT22;35067;48.134;8.378;2024-02-26T02:31:46;4.80;99.90
49236;DHT22;35067;48.134;8.378;2024-02-26T02:32:47;4.80;99.90
49236;DHT22;35067;48.134;8.378;2024-02-26T02:33:48;4.90;99.90
49236;DHT22;35067;48.134;8.378;2024-02-26T02:34:49;4.90;99.90
49236;DHT22;35067;48.134;8.378;2024-02-26T02:35:49;4.90;99.90
49236;DHT22;35067;48.134;8.378;2024-02-26T02:36:54;4.80;99.90
49236;DHT22;35067;48.134;8.378;2024-02-26T02:37:56;4.80;99.90
49236;DHT22;35067;48.134;8.378;2024-02-26T02:38:57;4.80;99.90
49236;DHT22;35067;48.134;8.378;2024-02-26T02:39:58;4.70;99.90
49236;DHT22;35067;48.134;8.378;2024-02-26T02:40:59;4.70;99.90
49236;DHT22;35067;48.134;8.378;2024-02-26T02:41:59;4.70;99.90
49236;DHT22;35067;48.134;8.378;2024-02-26T02:43:00;4.70;99.90
49236;DHT22;35067;48.134;8.378;2024-02-26T02:44:02;4.60;99.90
49236;DHT22;35067;48.134;8.378;2024-02-26T02:45:03;4.60;99.90
49236;DHT22;35067;48.134;8.378;2024-02-26T02:46:04;4.60;99.90
49236;DHT22;35067;48.134;8.378;2024-02-26T02:47:04;4.60;99.90
49236;DHT22;35067;48.134;8.378;2024-02-26T02:48:05;4.60;99.90
49236;DHT22;35067;48.134;8.378;2024-02-26T02:49:11;4.70;99.90
49236;DHT22;35067;48.134;8.378;2024-02-26T02:50:12;4.70;99.90
49236;DHT22;35067;48.134;8.378;2024-02-26T02:51:13;4.80;99.90
49236;DHT22;35067;48.134;8.378;2024-02-26T02:52:13;4.80;99.90
49236;DHT22;35067;48.134;8.378;2024-02-26T02:53:14;4.90;99.90
49236;DHT22;35067;48.134;8.378;2024-02-26T02:54:16;4.80;99.90
49236;DHT22;35067;48.134;8.378;2024-02-26T02:55:18;4.90;99.90
49236;DHT22;35067;48.134;8.378;2024-02-26T02:56:19;4.90;99.90
49236;DHT22;35067;48.134;8.378;2024-02-26T02:57:19;5.00;99.90
49236;DHT22;35067;48.134;8.378;2024-02-26T02:58:20;5.00;99.90
49236;DHT22;35067;48.134;8.378;2024-02-26T02:59:21;5.00;99.90
49236;DHT22;35067;48.134;8.378;2024-02-26T03:00:22;5.10;99.90
49236;DHT22;35067;48.134;8.378;2024-02-26T03:01:25;5.10;99.90
49236;DHT22;35067;48.134;8.378;2024-02-26T03:02:26;5.00;99.90
49236;DHT22;35067;48.134;8.378;2024-02-26T03:03:27;5.00;99.90
49236;DHT22;35067;48.134;8.378;2024-02-26T03:04:29;5.00;99.90
49236;DHT22;35067;48.134;8.378;2024-02-26T03:05:29;5.00;99.90
49236;DHT22;35067;48.134;8.378;2024-02-26T03:06:30;4.90;99.90
49236;DHT22;35067;48.134;8.378;2024-02-26T03:07:31;4.90;99.90
49236;DHT22;35067;48.134;8.378;2024-02-26T03:08:32;4.80;99.90
49236;DHT22;35067;48.134;8.378;2024-02-26T03:09:32;4.80;99.90
49236;DHT22;35067;48.134;8.378;2024-02-26T03:10:33;4.80;99.90
49236;DHT22;35067;48.134;8.378;2024-02-26T03:11:34;4.70;99.90
49236;DHT22;35067;48.134;8.378;2024-02-26T03:12:35;4.80;99.90
49236;DHT22;35067;48.134;8.378;2024-02-26T03:13:35;4.80;99.90
49236;DHT22;35067;48.134;8.378;2024-02-26T03:14:36;4.80;99.90
49236;DHT22;35067;48.134;8.378;2024-02-26T03:15:37;4.80;99.90
49236;DHT22;35067;48.134;8.378;2024-02-26T03:16:38;4.90;99.90
49236;DHT22;35067;48.134;8.378;2024-02-26T03:17:38;4.90;99.90
49236;DHT22;35067;48.134;8.378;2024-02-26T03:18:39;4.90;99.90
49236;DHT22;35067;48.134;8.378;2024-02-26T03:19:40;4.90;99.90
49236;DHT22;35067;48.134;8.378;2024-02-26T03:20:41;4.90;99.90
49236;DHT22;35067;48.134;8.378;2024-02-26T03:21:42;4.90;99.90
49236;DHT22;35067;48.134;8.378;2024-02-26T03:22:42;4.80;99.90
49236;DHT22;35067;48.134;8.378;2024-02-26T03:23:43;4.80;99.90
49236;DHT22;35067;48.134;8.378;2024-02-26T03:24:44;4.90;99.90
49236;DHT22;35067;48.134;8.378;2024-02-26T03:25:45;4.80;99.90
49236;DHT22;35067;48.134;8.378;2024-02-26T03:26:48;4.80;99.90
49236;DHT22;35067;48.134;8.378;2024-02-26T03:27:49;4.80;99.90
49236;DHT22;35067;48.134;8.378;2024-02-26T03:28:50;4.70;99.90
49236;DHT22;35067;48.134;8.378;2024-02-26T03:29:51;4.80;99.90
49236;DHT22;35067;48.134;8.378;2024-02-26T03:30:53;4.80;99.90
49236;DHT22;35067;48.134;8.378;2024-02-26T03:31:53;4.80;99.90
49236;DHT22;35067;48.134;8.378;2024-02-26T03:32:54;4.80;99.90
49236;DHT22;35067;48.134;8.378;2024-02-26T03:33:55;4.80;99.90
49236;DHT22;35067;48.134;8.378;2024-02-26T03:34:55;4.70;99.90
49236;DHT22;35067;48.134;8.378;2024-02-26T03:35:56;4.50;99.90
49236;DHT22;35067;48.134;8.378;2024-02-26T03:36:57;4.50;99.90
49236;DHT22;35067;48.134;8.378;2024-02-26T03:37:57;4.50;99.90
49236;DHT22;35067;48.134;8.378;2024-02-26T03:38:58;4.50;99.90
49236;DHT22;35067;48.134;8.378;2024-02-26T03:39:59;4.50;99.90
49236;DHT22;35067;48.134;8.378;2024-02-26T03:41:01;4.50;99.90
49236;DHT22;35067;48.134;8.378;2024-02-26T03:42:02;4.50;99.90
49236;DHT22;35067;48.134;8.378;2024-02-26T03:43:03;4.50;99.90
49236;DHT22;35067;48.134;8.378;2024-02-26T03:44:05;4.50;99.90
49236;DHT22;35067;48.134;8.378;2024-02-26T03:45:06;4.50;99.90
49236;DHT22;35067;48.134;8.378;2024-02-26T03:46:09;4.40;99.90
49236;DHT22;35067;48.134;8.378;2024-02-26T03:47:14;4.40;99.90
49236;DHT22;35067;48.134;8.378;2024-02-26T03:48:14;4.30;99.90
49236;DHT22;35067;48.134;8.378;2024-02-26T03:49:15;4.30;99.90
49236;DHT22;35067;48.134;8.378;2024-02-26T03:50:25;4.30;99.90
49236;DHT22;35067;48.134;8.378;2024-02-26T03:51:26;4.30;99.90
49236;DHT22;35067;48.134;8.378;2024-02-26T03:52:31;4.30;99.90
49236;DHT22;35067;48.134;8.378;2024-02-26T03:53:32;4.40;99.90
49236;DHT22;35067;48.134;8.378;2024-02-26T03:54:32;4.40;99.90
49236;DHT22;35067;48.134;8.378;2024-02-26T03:55:33;4.50;99.90
49236;DHT22;35067;48.134;8.378;2024-02-26T03:56:34;4.50;99.90
49236;DHT22;35067;48.134;8.378;2024-02-26T03:57:35;4.50;99.90
49236;DHT22;35067;48.134;8.378;2024-02-26T03:58:36;4.50;99.90
49236;DHT22;35067;48.134;8.378;2024-02-26T03:59:37;4.50;99.90
49236;DHT22;35067;48.134;8.378;2024-02-26T04:00:37;4.40;99.90
49236;DHT22;35067;48.134;8.378;2024-02-26T04:01:38;4.40;99.90
49236;DHT22;35067;48.134;8.378;2024-02-26T04:02:39;4.40;99.90
49236;DHT22;35067;48.134;8.378;2024-02-26T04:03:39;4.50;99.90
49236;DHT22;35067;48.134;8.378;2024-02-26T04:04:40;4.50;99.90
49236;DHT22;35067;48.134;8.378;2024-02-26T04:05:41;4.50;99.90
49236;DHT22;35067;48.134;8.378;2024-02-26T04:06:48;4.50;99.90
49236;DHT22;35067;48.134;8.378;2024-02-26T04:07:48;4.50;99.90
49236;DHT22;35067;48.134;8.378;2024-02-26T04:08:49;4.40;99.90
49236;DHT22;35067;48.134;8.378;2024-02-26T04:09:50;4.40;99.90
49236;DHT22;35067;48.134;8.378;2024-02-26T04:10:50;4.40;99.90
49236;DHT22;35067;48.134;8.378;2024-02-26T04:11:51;4.40;99.90
49236;DHT22;35067;48.134;8.378;2024-02-26T04:12:52;4.50;99.90
49236;DHT22;35067;48.134;8.378;2024-02-26T04:13:52;4.50;99.90
49236;DHT22;35067;48.134;8.378;2024-02-26T04:14:53;4.60;99.90
49236;DHT22;35067;48.134;8.378;2024-02-26T04:15:54;4.60;99.90
49236;DHT22;35067;48.134;8.378;2024-02-26T04:16:54;4.60;99.90
49236;DHT22;35067;48.134;8.378;2024-02-26T04:17:55;4.60;99.90
49236;DHT22;35067;48.134;8.378;2024-02-26T04:18:56;4.60;99.90
49236;DHT22;35067;48.134;8.378;2024-02-26T04:19:57;4.50;99.90
49236;DHT22;35067;48.134;8.378;2024-02-26T04:20:57;4.50;99.90
49236;DHT22;35067;48.134;8.378;2024-02-26T04:21:59;4.50;99.90
49236;DHT22;35067;48.134;8.378;2024-02-26T04:23:00;4.50;99.90
49236;DHT22;35067;48.134;8.378;2024-02-26T04:24:01;4.50;99.90
49236;DHT22;35067;48.134;8.378;2024-02-26T04:25:02;4.50;99.90
49236;DHT22;35067;48.134;8.378;2024-02-26T04:26:03;4.50;99.90
49236;DHT22;35067;48.134;8.378;2024-02-26T04:27:05;4.60;99.90
49236;DHT22;35067;48.134;8.378;2024-02-26T04:28:05;4.60;99.90
49236;DHT22;35067;48.134;8.378;2024-02-26T04:29:06;4.60;99.90
49236;DHT22;35067;48.134;8.378;2024-02-26T04:30:07;4.60;99.90
49236;DHT22;35067;48.134;8.378;2024-02-26T04:31:08;4.60;99.90
49236;DHT22;35067;48.134;8.378;2024-02-26T04:32:09;4.70;99.90
49236;DHT22;35067;48.134;8.378;2024-02-26T04:33:10;4.70;99.90
49236;DHT22;35067;48.134;8.378;2024-02-26T04:34:10;4.70;99.90
49236;DHT22;35067;48.134;8.378;2024-02-26T04:35:11;4.70;99.90
49236;DHT22;35067;48.134;8.378;2024-02-26T04:36:13;4.80;99.90
49236;DHT22;35067;48.134;8.378;2024-02-26T04:37:16;4.80;99.90
49236;DHT22;35067;48.134;8.378;2024-02-26T04:38:16;4.80;99.90
49236;DHT22;35067;48.134;8.378;2024-02-26T04:39:17;4.80;99.90
49236;DHT22;35067;48.134;8.378;2024-02-26T04:40:18;4.80;99.90
49236;DHT22;35067;48.134;8.378;2024-02-26T04:41:19;4.90;99.90
49236;DHT22;35067;48.134;8.378;2024-02-26T04:42:19;4.90;99.90
49236;DHT22;35067;48.134;8.378;2024-02-26T04:43:20;4.90;99.90
49236;DHT22;35067;48.134;8.378;2024-02-26T04:44:21;4.90;99.90
49236;DHT22;35067;48.134;8.378;2024-02-26T04:45:21;5.00;99.90
49236;DHT22;35067;48.134;8.378;2024-02-26T04:46:22;5.00;99.90
49236;DHT22;35067;48.134;8.378;2024-02-26T04:47:23;5.10;99.90
49236;DHT22;35067;48.134;8.378;2024-02-26T04:48:23;5.20;99.90
49236;DHT22;35067;48.134;8.378;2024-02-26T04:49:24;5.20;99.90
49236;DHT22;35067;48.134;8.378;2024-02-26T04:50:25;5.20;99.90
49236;DHT22;35067;48.134;8.378;2024-02-26T04:51:25;5.10;99.90
49236;DHT22;35067;48.134;8.378;2024-02-26T04:52:26;5.10;99.90
49236;DHT22;35067;48.134;8.378;2024-02-26T04:53:27;5.10;99.90
49236;DHT22;35067;48.134;8.378;2024-02-26T04:54:28;5.10;99.90
49236;DHT22;35067;48.134;8.378;2024-02-26T04:55:28;5.10;99.90
49236;DHT22;35067;48.134;8.378;2024-02-26T04:56:29;5.00;99.90
49236;DHT22;35067;48.134;8.378;2024-02-26T04:57:30;5.10;99.90
49236;DHT22;35067;48.134;8.378;2024-02-26T04:58:31;5.10;99.90
49236;DHT22;35067;48.134;8.378;2024-02-26T04:59:31;5.10;99.90
49236;DHT22;35067;48.134;8.378;2024-02-26T05:00:32;5.00;99.90
49236;DHT22;35067;48.134;8.378;2024-02-26T05:01:33;5.10;99.90
49236;DHT22;35067;48.134;8.378;2024-02-26T05:02:33;5.00;99.90
49236;DHT22;35067;48.134;8.378;2024-02-26T05:03:38;5.00;99.90
49236;DHT22;35067;48.134;8.378;2024-02-26T05:04:38;4.90;99.90
49236;DHT22;35067;48.134;8.378;2024-02-26T05:05:43;4.90;99.90
49236;DHT22;35067;48.134;8.378;2024-02-26T05:06:44;4.80;99.90
49236;DHT22;35067;48.134;8.378;2024-02-26T05:07:44;4.90;99.90
49236;DHT22;35067;48.134;8.378;2024-02-26T05:08:45;5.00;99.90
49236;DHT22;35067;48.134;8.378;2024-02-26T05:09:46;4.90;99.90
49236;DHT22;35067;48.134;8.378;2024-02-26T05:10:49;5.00;99.90
49236;DHT22;35067;48.134;8.378;2024-02-26T05:11:50;4.90;99.90
49236;DHT22;35067;48.134;8.378;2024-02-26T05:12:51;5.00;99.90
49236;DHT22;35067;48.134;8.378;2024-02-26T05:13:51;5.00;99.90
49236;DHT22;35067;48.134;8.378;2024-02-26T05:14:52;5.10;99.90
49236;DHT22;35067;48.134;8.378;2024-02-26T05:15:53;5.00;99.90
49236;DHT22;35067;48.134;8.378;2024-02-26T05:16:53;5.10;99.90
49236;DHT22;35067;48.134;8.378;2024-02-26T05:17:54;5.10;99.90
49236;DHT22;35067;48.134;8.378;2024-02-26T05:18:55;5.10;99.90
49236;DHT22;35067;48.134;8.378;2024-02-26T05:19:56;5.10;99.90
49236;DHT22;35067;48.134;8.378;2024-02-26T05:20:56;5.00;99.90
49236;DHT22;35067;48.134;8.378;2024-02-26T05:21:57;5.10;99.90
49236;DHT22;35067;48.134;8.378;2024-02-26T05:22:58;5.10;99.90
49236;DHT22;35067;48.134;8.378;2024-02-26T05:23:59;5.10;99.90
49236;DHT22;35067;48.134;8.378;2024-02-26T05:25:00;5.10;99.90
49236;DHT22;35067;48.134;8.378;2024-02-26T05:26:00;5.10;99.90
49236;DHT22;35067;48.134;8.378;2024-02-26T05:27:01;5.10;99.90
49236;DHT22;35067;48.134;8.378;2024-02-26T05:28:02;5.00;99.90
49236;DHT22;35067;48.134;8.378;2024-02-26T05:29:03;5.00;99.90
49236;DHT22;35067;48.134;8.378;2024-02-26T05:30:04;5.00;99.90
49236;DHT22;35067;48.134;8.378;2024-02-26T05:31:06;5.00;99.90
49236;DHT22;35067;48.134;8.378;2024-02-26T05:32:06;5.00;99.90
49236;DHT22;35067;48.134;8.378;2024-02-26T05:33:07;5.00;99.90
49236;DHT22;35067;48.134;8.378;2024-02-26T05:34:08;5.00;99.90
49236;DHT22;35067;48.134;8.378;2024-02-26T05:35:08;5.00;99.90
49236;DHT22;35067;48.134;8.378;2024-02-26T05:36:09;5.00;99.90
49236;DHT22;35067;48.134;8.378;2024-02-26T05:37:10;5.00;99.90
49236;DHT22;35067;48.134;8.378;2024-02-26T05:38:11;4.90;99.90
49236;DHT22;35067;48.134;8.378;2024-02-26T05:39:12;4.90;99.90
49236;DHT22;35067;48.134;8.378;2024-02-26T05:40:13;4.90;99.90
49236;DHT22;35067;48.134;8.378;2024-02-26T05:41:17;4.90;99.90
49236;DHT22;35067;48.134;8.378;2024-02-26T05:42:26;4.90;99.90
49236;DHT22;35067;48.134;8.378;2024-02-26T05:43:27;4.90;99.90
49236;DHT22;35067;48.134;8.378;2024-02-26T05:44:28;5.00;99.90
49236;DHT22;35067;48.134;8.378;2024-02-26T05:45:29;5.00;99.90
49236;DHT22;35067;48.134;8.378;2024-02-26T05:46:29;5.00;99.90
49236;DHT22;35067;48.134;8.378;2024-02-26T05:47:30;5.00;99.90
49236;DHT22;35067;48.134;8.378;2024-02-26T05:48:31;5.00;99.90
49236;DHT22;35067;48.134;8.378;2024-02-26T05:49:32;4.90;99.90
49236;DHT22;35067;48.134;8.378;2024-02-26T05:50:33;4.90;99.90
49236;DHT22;35067;48.134;8.378;2024-02-26T05:51:34;4.90;99.90
49236;DHT22;35067;48.134;8.378;2024-02-26T05:52:35;4.90;99.90
49236;DHT22;35067;48.134;8.378;2024-02-26T05:53:35;4.90;99.90
49236;DHT22;35067;48.134;8.378;2024-02-26T05:54:36;4.90;99.90
49236;DHT22;35067;48.134;8.378;2024-02-26T05:55:37;4.80;99.90
49236;DHT22;35067;48.134;8.378;2024-02-26T05:56:38;4.70;99.90
49236;DHT22;35067;48.134;8.378;2024-02-26T05:57:38;4.80;99.90
49236;DHT22;35067;48.134;8.378;2024-02-26T05:58:39;4.80;99.90
49236;DHT22;35067;48.134;8.378;2024-02-26T05:59:40;4.80;99.90
49236;DHT22;35067;48.134;8.378;2024-02-26T06:00:40;4.80;99.90
49236;DHT22;35067;48.134;8.378;2024-02-26T06:01:41;4.80;99.90
49236;DHT22;35067;48.134;8.378;2024-02-26T06:02:42;4.80;99.90
49236;DHT22;35067;48.134;8.378;2024-02-26T06:03:43;4.80;99.90
49236;DHT22;35067;48.134;8.378;2024-02-26T06:04:44;4.80;99.90
49236;DHT22;35067;48.134;8.378;2024-02-26T06:05:46;4.90;99.90
49236;DHT22;35067;48.134;8.378;2024-02-26T06:06:47;4.90;99.90
49236;DHT22;35067;48.134;8.378;2024-02-26T06:07:48;4.90;99.90
49236;DHT22;35067;48.134;8.378;2024-02-26T06:08:48;4.90;99.90
49236;DHT22;35067;48.134;8.378;2024-02-26T06:09:49;4.90;99.90
49236;DHT22;35067;48.134;8.378;2024-02-26T06:10:50;4.80;99.90
49236;DHT22;35067;48.134;8.378;2024-02-26T06:11:51;4.90;99.90
49236;DHT22;35067;48.134;8.378;2024-02-26T06:12:51;4.90;99.90
49236;DHT22;35067;48.134;8.378;2024-02-26T06:13:52;4.90;99.90
49236;DHT22;35067;48.134;8.378;2024-02-26T06:14:53;4.90;99.90
49236;DHT22;35067;48.134;8.378;2024-02-26T06:15:54;4.90;99.90
49236;DHT22;35067;48.134;8.378;2024-02-26T06:16:55;4.80;99.90
49236;DHT22;35067;48.134;8.378;2024-02-26T06:17:55;4.90;99.90
49236;DHT22;35067;48.134;8.378;2024-02-26T06:18:56;4.80;99.90
49236;DHT22;35067;48.134;8.378;2024-02-26T06:19:57;4.80;99.90
49236;DHT22;35067;48.134;8.378;2024-02-26T06:20:59;4.80;99.90
49236;DHT22;35067;48.134;8.378;2024-02-26T06:22:00;4.80;99.90
49236;DHT22;35067;48.134;8.378;2024-02-26T06:23:01;4.80;99.90
49236;DHT22;35067;48.134;8.378;2024-02-26T06:24:01;4.80;99.90
49236;DHT22;35067;48.134;8.378;2024-02-26T06:25:02;4.80;99.90
49236;DHT22;35067;48.134;8.378;2024-02-26T06:26:03;4.70;99.90
49236;DHT22;35067;48.134;8.378;2024-02-26T06:27:04;4.70;99.90
49236;DHT22;35067;48.134;8.378;2024-02-26T06:28:05;4.70;99.90
49236;DHT22;35067;48.134;8.378;2024-02-26T06:29:06;4.80;99.90
49236;DHT22;35067;48.134;8.378;2024-02-26T06:30:07;4.80;99.90
49236;DHT22;35067;48.134;8.378;2024-02-26T06:31:09;4.80;99.90